createdAt,value
2019-01-13T00:00:33.750Z,19.60
2019-01-13T00:03:03.608Z,20.40
2019-01-13T00:05:33.668Z,20.17
2019-01-13T00:08:03.992Z,17.33
2019-01-13T00:10:33.618Z,15.67
2019-01-13T00:13:03.748Z,20.53
2019-01-13T00:15:33.206Z,20.37
2019-01-13T00:18:02.921Z,20.13
2019-01-13T00:20:32.781Z,16.00
2019-01-13T00:23:02.733Z,15.40
2019-01-13T00:25:32.403Z,17.67
2019-01-13T00:28:02.081Z,20.93
2019-01-13T00:30:31.711Z,18.70
2019-01-13T00:33:01.349Z,15.30
2019-01-13T00:35:32.004Z,17.73
2019-01-13T00:38:01.824Z,19.20
2019-01-13T00:40:31.425Z,18.13
2019-01-13T00:43:01.364Z,23.33
2019-01-13T00:45:31.059Z,17.07
2019-01-13T00:48:00.592Z,16.47
2019-01-13T00:50:30.327Z,19.50
2019-01-13T00:53:00.016Z,17.40
2019-01-13T00:55:29.819Z,13.23
2019-01-13T00:57:59.430Z,23.10
2019-01-13T01:00:29.117Z,19.30
2019-01-13T01:02:58.859Z,19.47
2019-01-13T01:05:28.656Z,20.47
2019-01-13T01:07:58.373Z,12.73
2019-01-13T01:10:28.078Z,15.93
2019-01-13T01:12:57.731Z,17.70
2019-01-13T01:15:27.470Z,16.43
2019-01-13T01:17:57.334Z,14.07
2019-01-13T01:20:26.898Z,14.10
2019-01-13T01:22:56.809Z,11.23
2019-01-13T01:25:26.337Z,15.57
2019-01-13T01:27:56.362Z,19.70
2019-01-13T01:30:33.285Z,12.37
2019-01-13T01:32:57.745Z,14.57
2019-01-13T01:35:27.545Z,15.73
2019-01-13T01:37:57.684Z,18.73
2019-01-13T01:40:27.317Z,22.73
2019-01-13T01:42:58.881Z,17.50
2019-01-13T01:45:28.656Z,20.10
2019-01-13T01:47:58.804Z,17.70
2019-01-13T01:50:28.307Z,17.93
2019-01-13T01:52:58.310Z,15.63
2019-01-13T01:55:28.005Z,14.70
2019-01-13T01:57:57.888Z,22.07
2019-01-13T02:00:27.659Z,18.43
2019-01-13T02:02:57.409Z,17.77
2019-01-13T02:05:27.061Z,17.00
2019-01-13T02:07:56.755Z,14.90
2019-01-13T02:10:26.997Z,23.37
2019-01-13T02:12:57.357Z,12.80
2019-01-13T02:15:27.810Z,13.70
2019-01-13T02:17:57.920Z,11.83
2019-01-13T02:20:27.727Z,15.77
2019-01-13T02:22:57.552Z,15.50
2019-01-13T02:25:28.070Z,17.73
2019-01-13T02:27:58.319Z,22.23
2019-01-13T02:30:28.543Z,23.10
2019-01-13T02:32:58.364Z,17.80
2019-01-13T02:35:27.972Z,23.17
2019-01-13T02:37:57.990Z,20.10
2019-01-13T02:40:28.135Z,18.77
2019-01-13T02:42:58.046Z,21.17
2019-01-13T02:45:28.799Z,18.67
2019-01-13T02:47:58.932Z,17.50
2019-01-13T02:50:28.558Z,25.87
2019-01-13T02:52:58.156Z,24.03
2019-01-13T02:55:28.000Z,22.00
2019-01-13T02:57:57.471Z,21.03
2019-01-13T03:00:27.547Z,19.70
2019-01-13T03:02:57.537Z,19.43
2019-01-13T03:05:27.265Z,19.27
2019-01-13T03:07:56.981Z,20.60
2019-01-13T03:10:26.633Z,24.17
2019-01-13T03:12:56.797Z,17.57
2019-01-13T03:15:26.652Z,27.43
2019-01-13T03:17:56.347Z,27.80
2019-01-13T03:20:25.985Z,24.30
2019-01-13T03:22:55.735Z,22.77
2019-01-13T03:25:25.547Z,22.40
2019-01-13T03:27:55.192Z,25.47
2019-01-13T03:30:25.296Z,22.33
2019-01-13T03:32:55.044Z,23.90
2019-01-13T03:35:25.259Z,20.80
2019-01-13T03:37:55.048Z,19.30
2019-01-13T03:40:25.274Z,19.57
2019-01-13T03:42:55.423Z,23.00
2019-01-13T03:45:25.494Z,24.53
2019-01-13T03:47:55.356Z,18.87
2019-01-13T03:50:25.886Z,14.57
2019-01-13T03:52:55.697Z,22.57
2019-01-13T03:55:25.868Z,23.03
2019-01-13T03:57:55.396Z,19.83
2019-01-13T04:00:25.974Z,21.77
2019-01-13T04:02:56.454Z,20.73
2019-01-13T04:05:25.965Z,21.17
2019-01-13T04:07:55.905Z,20.13
2019-01-13T04:10:25.575Z,22.20
2019-01-13T04:12:55.310Z,25.40
2019-01-13T04:15:35.752Z,22.73
2019-01-13T04:18:05.981Z,21.73
2019-01-13T04:20:36.104Z,23.80
2019-01-13T04:23:05.821Z,23.90
2019-01-13T04:25:35.413Z,25.17
2019-01-13T04:28:05.496Z,25.80
2019-01-13T04:30:35.249Z,27.40
2019-01-13T04:33:05.251Z,29.53
2019-01-13T04:35:34.963Z,28.87
2019-01-13T04:38:04.633Z,30.07
2019-01-13T04:40:34.494Z,33.30
2019-01-13T04:43:04.113Z,30.57
2019-01-13T04:45:33.833Z,29.57
2019-01-13T04:48:03.476Z,29.13
2019-01-13T04:50:33.087Z,32.50
2019-01-13T04:53:02.676Z,25.87
2019-01-13T04:55:32.633Z,33.57
2019-01-13T04:58:02.281Z,34.50
2019-01-13T05:00:32.215Z,31.87
2019-01-13T05:03:02.097Z,30.07
2019-01-13T05:05:31.795Z,33.23
2019-01-13T05:08:01.461Z,29.97
2019-01-13T05:10:31.335Z,38.97
2019-01-13T05:13:00.936Z,29.30
2019-01-13T05:15:30.608Z,29.57
2019-01-13T05:18:03.403Z,29.53
2019-01-13T05:20:33.062Z,27.33
2019-01-13T05:23:02.846Z,29.37
2019-01-13T05:25:32.474Z,28.87
2019-01-13T05:28:02.109Z,35.13
2019-01-13T05:30:31.755Z,30.20
2019-01-13T05:33:01.643Z,32.10
2019-01-13T05:35:31.305Z,25.80
2019-01-13T05:38:00.987Z,30.80
2019-01-13T05:40:30.583Z,30.20
2019-01-13T05:43:00.465Z,27.70
2019-01-13T05:45:30.400Z,30.47
2019-01-13T05:47:59.942Z,31.17
2019-01-13T05:50:29.447Z,33.93
2019-01-13T05:52:59.390Z,29.40
2019-01-13T05:55:29.405Z,29.97
2019-01-13T05:57:59.018Z,32.73
2019-01-13T06:00:30.475Z,33.20
2019-01-13T06:03:00.175Z,27.83
2019-01-13T06:05:29.890Z,27.10
2019-01-13T06:07:59.554Z,27.80
2019-01-13T06:10:29.044Z,30.60
2019-01-13T06:12:58.801Z,32.50
2019-01-13T06:15:28.343Z,28.77
2019-01-13T06:17:57.960Z,30.60
2019-01-13T06:20:27.809Z,28.43
2019-01-13T06:22:57.705Z,25.67
2019-01-13T06:25:27.289Z,24.33
2019-01-13T06:27:57.143Z,25.70
2019-01-13T06:30:26.734Z,20.90
2019-01-13T06:32:56.563Z,24.80
2019-01-13T06:35:26.121Z,24.63
2019-01-13T06:37:55.988Z,22.13
2019-01-13T06:40:25.729Z,26.50
2019-01-13T06:42:55.498Z,27.20
2019-01-13T06:45:25.203Z,24.10
2019-01-13T06:47:54.848Z,24.43
2019-01-13T06:50:24.594Z,24.23
2019-01-13T06:52:54.333Z,24.43
2019-01-13T06:55:24.038Z,27.23
2019-01-13T06:57:54.102Z,24.33
2019-01-13T07:00:25.844Z,23.23
2019-01-13T07:02:56.076Z,24.93
2019-01-13T07:05:26.073Z,25.73
2019-01-13T07:07:55.788Z,20.80
2019-01-13T07:10:26.069Z,23.97
2019-01-13T07:12:55.762Z,20.77
2019-01-13T07:15:25.600Z,20.40
2019-01-13T07:17:55.556Z,21.97
2019-01-13T07:20:25.277Z,23.83
2019-01-13T07:22:55.084Z,20.07
2019-01-13T07:25:25.083Z,23.47
2019-01-13T07:27:54.587Z,18.33
2019-01-13T07:30:24.757Z,22.17
2019-01-13T07:32:54.383Z,20.70
2019-01-13T07:35:24.215Z,21.80
2019-01-13T07:37:54.082Z,20.93
2019-01-13T07:40:24.411Z,23.63
2019-01-13T07:42:54.244Z,25.07
2019-01-13T07:45:24.844Z,24.80
2019-01-13T07:47:54.668Z,26.87
2019-01-13T07:50:24.984Z,27.30
2019-01-13T07:52:54.638Z,27.10
2019-01-13T07:55:25.141Z,25.07
2019-01-13T07:57:54.964Z,26.20
2019-01-13T08:00:30.509Z,25.47
2019-01-13T08:03:00.124Z,19.77
2019-01-13T08:05:29.924Z,24.90
2019-01-13T08:07:59.607Z,23.93
2019-01-13T08:10:29.370Z,25.63
2019-01-13T08:12:59.062Z,23.80
2019-01-13T08:15:32.819Z,28.00
2019-01-13T08:18:02.532Z,23.80
2019-01-13T08:20:32.659Z,25.17
2019-01-13T08:23:02.929Z,23.37
2019-01-13T08:25:32.581Z,22.93
2019-01-13T08:28:02.202Z,22.57
2019-01-13T08:30:32.113Z,23.37
2019-01-13T08:33:01.607Z,25.73
2019-01-13T08:35:31.267Z,23.37
2019-01-13T08:38:00.959Z,23.63
2019-01-13T08:40:31.049Z,20.97
2019-01-13T08:43:00.922Z,22.83
2019-01-13T08:45:30.753Z,21.77
2019-01-13T08:48:00.743Z,22.83
2019-01-13T08:50:30.602Z,18.87
2019-01-13T08:53:00.542Z,20.30
2019-01-13T08:55:30.486Z,18.77
2019-01-13T08:58:00.190Z,19.30
2019-01-13T09:00:31.364Z,20.17
2019-01-13T09:03:01.054Z,19.33
2019-01-13T09:05:31.076Z,19.13
2019-01-13T09:08:00.853Z,18.53
2019-01-13T09:10:30.918Z,19.90
2019-01-13T09:13:00.868Z,14.83
2019-01-13T09:15:30.846Z,15.17
2019-01-13T09:18:00.566Z,14.37
2019-01-13T09:20:31.531Z,13.60
2019-01-13T09:23:01.515Z,12.53
2019-01-13T09:25:31.323Z,14.00
2019-01-13T09:28:00.928Z,11.50
2019-01-13T09:30:31.712Z,13.07
2019-01-13T09:33:01.431Z,13.47
2019-01-13T09:35:32.290Z,11.63
2019-01-13T09:38:01.970Z,12.33
2019-01-13T09:40:32.443Z,13.07
2019-01-13T09:43:02.753Z,10.13
2019-01-13T09:45:33.172Z,11.10
2019-01-13T09:48:02.833Z,11.60
2019-01-13T09:50:33.036Z,12.13
2019-01-13T09:53:02.656Z,9.80
2019-01-13T09:55:32.258Z,8.77
2019-01-13T09:58:01.972Z,8.03
2019-01-13T10:00:34.439Z,8.63
2019-01-13T10:03:04.714Z,8.50
2019-01-13T10:05:34.597Z,8.57
2019-01-13T10:08:04.641Z,5.13
2019-01-13T10:10:34.661Z,7.00
2019-01-13T10:13:04.869Z,5.60
2019-01-13T10:15:34.739Z,5.17
2019-01-13T10:18:04.613Z,5.00
2019-01-13T10:20:34.404Z,4.97
2019-01-13T10:23:04.141Z,3.57
2019-01-13T10:25:33.814Z,3.73
2019-01-13T10:28:03.795Z,3.93
2019-01-13T10:30:33.627Z,4.13
2019-01-13T10:33:03.295Z,3.07
2019-01-13T10:35:33.371Z,3.30
2019-01-13T10:38:03.503Z,2.33
2019-01-13T10:40:33.609Z,2.77
2019-01-13T10:43:03.615Z,2.30
2019-01-13T10:45:33.371Z,2.23
2019-01-13T10:48:03.353Z,3.37
2019-01-13T10:50:34.036Z,3.00
2019-01-13T10:53:03.791Z,2.57
2019-01-13T10:55:33.611Z,2.40
2019-01-13T10:58:03.370Z,1.90
2019-01-13T11:00:34.929Z,2.37
2019-01-13T11:03:04.762Z,2.57
2019-01-13T11:05:34.458Z,1.80
2019-01-13T11:08:11.307Z,1.80
2019-01-13T11:10:36.216Z,3.73
2019-01-13T11:13:06.333Z,2.83
2019-01-13T11:15:36.319Z,2.30
2019-01-13T11:18:06.236Z,1.47
2019-01-13T11:20:36.567Z,2.20
2019-01-13T11:23:06.357Z,1.70
2019-01-13T11:25:36.277Z,1.70
2019-01-13T11:28:06.599Z,1.83
2019-01-13T11:30:36.471Z,1.83
2019-01-13T11:33:09.643Z,1.87
2019-01-13T11:35:37.686Z,3.70
2019-01-13T11:38:07.643Z,2.60
2019-01-13T11:40:37.406Z,3.80
2019-01-13T11:43:07.276Z,3.30
2019-01-13T11:45:37.025Z,3.73
2019-01-13T11:48:07.032Z,2.73
2019-01-13T11:50:36.914Z,1.63
2019-01-13T11:53:06.812Z,2.83
2019-01-13T11:55:36.671Z,1.70
2019-01-13T11:58:06.495Z,2.10
2019-01-13T12:00:39.023Z,1.20
2019-01-13T12:03:08.888Z,2.70
2019-01-13T12:05:39.029Z,2.03
2019-01-13T12:08:09.009Z,2.40
2019-01-13T12:10:38.958Z,4.20
2019-01-13T12:13:09.335Z,1.97
2019-01-13T12:15:38.986Z,4.33
2019-01-13T12:18:09.065Z,2.97
2019-01-13T12:20:38.817Z,2.20
2019-01-13T12:23:08.865Z,1.33
2019-01-13T12:25:39.603Z,1.47
2019-01-13T12:28:09.334Z,2.87
2019-01-13T12:30:39.041Z,1.23
2019-01-13T12:33:08.849Z,2.90
2019-01-13T12:35:38.800Z,3.00
2019-01-13T12:38:08.751Z,3.17
2019-01-13T12:40:38.518Z,4.43
2019-01-13T12:43:08.581Z,1.63
2019-01-13T12:45:38.476Z,1.30
2019-01-13T12:48:08.417Z,1.30
2019-01-13T12:50:38.201Z,2.47
2019-01-13T12:53:08.045Z,1.10
2019-01-13T12:55:37.712Z,1.27
2019-01-13T12:58:07.668Z,1.40
2019-01-13T13:00:37.343Z,3.67
2019-01-13T13:03:07.445Z,2.17
2019-01-13T13:05:37.450Z,2.27
2019-01-13T13:08:07.234Z,1.93
2019-01-13T13:10:40.285Z,1.63
2019-01-13T13:13:09.930Z,1.10
2019-01-13T13:15:39.736Z,2.13
2019-01-13T13:18:09.517Z,1.73
2019-01-13T13:20:39.175Z,1.70
2019-01-13T13:23:09.277Z,1.20
2019-01-13T13:25:39.180Z,1.50
2019-01-13T13:28:10.562Z,2.03
2019-01-13T13:30:40.355Z,2.67
2019-01-13T13:33:10.081Z,3.80
2019-01-13T13:35:40.239Z,2.37
2019-01-13T13:38:10.139Z,2.33
2019-01-13T13:40:40.092Z,1.37
2019-01-13T13:43:09.883Z,1.63
2019-01-13T13:45:39.796Z,1.60
2019-01-13T13:48:11.400Z,2.50
2019-01-13T13:50:41.536Z,1.67
2019-01-13T13:53:11.339Z,1.30
2019-01-13T13:55:41.061Z,1.23
2019-01-13T13:58:11.029Z,1.33
2019-01-13T14:00:41.133Z,2.63
2019-01-13T14:03:11.410Z,1.40
2019-01-13T14:05:41.317Z,1.70
2019-01-13T14:08:12.085Z,4.73
2019-01-13T14:10:42.126Z,1.10
2019-01-13T14:13:11.928Z,2.37
2019-01-13T14:15:41.598Z,1.10
2019-01-13T14:18:11.256Z,1.50
2019-01-13T14:20:41.282Z,1.40
2019-01-13T14:23:11.009Z,2.87
2019-01-13T14:25:40.853Z,1.27
2019-01-13T14:28:10.745Z,2.23
2019-01-13T14:30:40.349Z,1.10
2019-01-13T14:33:10.246Z,1.70
2019-01-13T14:35:40.126Z,1.63
2019-01-13T14:38:09.670Z,1.10
2019-01-13T14:40:39.543Z,0.70
2019-01-13T14:43:09.316Z,1.90
2019-01-13T14:45:39.099Z,1.77
2019-01-13T14:48:08.839Z,1.20
2019-01-13T14:50:39.714Z,1.50
2019-01-13T14:53:09.999Z,1.13
2019-01-13T14:55:39.925Z,1.97
2019-01-13T14:58:09.654Z,2.47
2019-01-13T15:00:39.434Z,2.17
2019-01-13T15:03:15.909Z,1.70
2019-01-13T15:05:45.460Z,1.93
2019-01-13T15:08:15.146Z,1.73
2019-01-13T15:10:44.871Z,1.57
2019-01-13T15:13:14.618Z,2.27
2019-01-13T15:15:44.522Z,2.30
2019-01-13T15:18:14.440Z,1.57
2019-01-13T15:20:44.145Z,1.10
2019-01-13T15:23:13.864Z,1.43
2019-01-13T15:25:43.721Z,3.87
2019-01-13T15:28:13.418Z,2.07
2019-01-13T15:30:43.115Z,1.17
2019-01-13T15:33:13.130Z,3.93
2019-01-13T15:35:42.883Z,3.50
2019-01-13T15:38:12.659Z,1.97
2019-01-13T15:40:42.340Z,4.50
2019-01-13T15:43:12.116Z,2.63
2019-01-13T15:45:41.826Z,3.53
2019-01-13T15:48:11.589Z,3.47
2019-01-13T15:50:41.516Z,3.50
2019-01-13T15:53:11.503Z,3.73
2019-01-13T15:55:41.290Z,1.60
2019-01-13T15:58:11.092Z,2.67
2019-01-13T16:00:40.883Z,5.23
2019-01-13T16:03:11.227Z,4.50
2019-01-13T16:05:41.035Z,5.67
2019-01-13T16:08:11.305Z,5.17
2019-01-13T16:10:41.127Z,5.80
2019-01-13T16:13:10.987Z,4.43
2019-01-13T16:15:40.640Z,7.50
2019-01-13T16:18:10.374Z,6.77
2019-01-13T16:20:40.285Z,8.83
2019-01-13T16:23:10.266Z,7.00
2019-01-13T16:25:40.005Z,7.93
2019-01-13T16:28:09.855Z,6.77
2019-01-13T16:30:39.771Z,6.13
2019-01-13T16:33:09.610Z,9.97
2019-01-13T16:35:39.815Z,10.97
2019-01-13T16:38:09.743Z,11.97
2019-01-13T16:40:39.607Z,10.30
2019-01-13T16:43:09.856Z,15.10
2019-01-13T16:45:39.660Z,11.30
2019-01-13T16:48:09.511Z,13.93
2019-01-13T16:50:39.603Z,9.20
2019-01-13T16:53:09.308Z,6.97
2019-01-13T16:55:38.939Z,12.93
2019-01-13T16:58:08.849Z,13.47
2019-01-13T17:00:38.522Z,12.20
2019-01-13T17:03:08.137Z,11.17
2019-01-13T17:05:37.893Z,10.33
2019-01-13T17:08:07.834Z,9.47
2019-01-13T17:10:37.697Z,14.90
2019-01-13T17:13:07.807Z,11.07
2019-01-13T17:15:37.587Z,11.13
2019-01-13T17:18:07.590Z,13.87
2019-01-13T17:20:37.477Z,10.60
2019-01-13T17:23:07.384Z,10.10
2019-01-13T17:25:37.196Z,14.30
2019-01-13T17:28:07.317Z,9.60
2019-01-13T17:30:37.286Z,8.80
2019-01-13T17:33:07.998Z,7.80
2019-01-13T17:35:37.666Z,5.73
2019-01-13T17:38:08.237Z,5.03
2019-01-13T17:40:37.984Z,5.33
2019-01-13T17:43:08.135Z,5.17
2019-01-13T17:45:37.939Z,5.80
2019-01-13T17:48:09.196Z,3.77
2019-01-13T17:50:39.266Z,7.10
2019-01-13T17:53:10.057Z,3.67
2019-01-13T17:55:39.687Z,3.27
2019-01-13T17:58:09.717Z,6.37
2019-01-13T18:00:50.034Z,10.63
2019-01-13T18:03:40.969Z,6.77
2019-01-13T18:06:11.139Z,5.00
2019-01-13T18:08:41.045Z,4.83
2019-01-13T18:11:10.952Z,7.13
2019-01-13T18:13:40.880Z,7.77
2019-01-13T18:16:10.770Z,7.80
2019-01-13T18:18:40.555Z,12.13
2019-01-13T18:21:10.813Z,6.80
2019-01-13T18:23:40.718Z,9.53
2019-01-13T18:26:10.551Z,3.43
2019-01-13T18:28:40.601Z,3.67
2019-01-13T18:31:10.295Z,5.37
2019-01-13T18:33:39.915Z,5.80
2019-01-13T18:36:09.907Z,3.43
2019-01-13T18:38:39.611Z,3.17
2019-01-13T18:41:09.581Z,5.17
2019-01-13T18:43:39.177Z,4.40
2019-01-13T18:46:08.996Z,1.47
2019-01-13T18:48:38.734Z,3.23
2019-01-13T18:51:08.455Z,3.40
2019-01-13T18:53:38.213Z,5.10
2019-01-13T18:56:07.852Z,6.43
2019-01-13T18:58:37.532Z,7.87
2019-01-13T19:01:07.460Z,9.97
2019-01-13T19:03:37.369Z,10.07
2019-01-13T19:06:07.355Z,9.20
2019-01-13T19:08:37.028Z,9.67
2019-01-13T19:11:11.486Z,12.73
2019-01-13T19:13:57.970Z,10.03
2019-01-13T19:16:30.397Z,7.63
2019-01-13T19:19:00.743Z,14.17
2019-01-13T19:21:30.838Z,9.73
2019-01-13T19:24:00.325Z,12.33
2019-01-13T19:26:30.367Z,10.47
2019-01-13T19:29:00.533Z,5.00
2019-01-13T19:31:30.603Z,2.63
2019-01-13T19:34:00.879Z,6.07
2019-01-13T19:36:30.430Z,5.40
2019-01-13T19:39:00.409Z,6.40
2019-01-13T19:41:30.254Z,6.20
2019-01-13T19:44:00.169Z,4.53
2019-01-13T19:46:30.173Z,6.40
2019-01-13T19:49:00.015Z,7.37
2019-01-13T19:51:29.895Z,8.07
2019-01-13T19:54:01.851Z,7.83
2019-01-13T19:56:32.564Z,4.33
2019-01-13T19:59:02.263Z,5.97
2019-01-13T20:01:32.263Z,5.87
2019-01-13T20:04:02.451Z,10.70
2019-01-13T20:06:32.374Z,5.07
2019-01-13T20:09:02.229Z,4.93
2019-01-13T20:11:32.150Z,2.87
2019-01-13T20:14:02.585Z,5.07
2019-01-13T20:16:32.336Z,6.17
2019-01-13T20:19:02.121Z,8.27
2019-01-13T20:21:32.145Z,9.37
2019-01-13T20:24:02.192Z,5.97
2019-01-13T20:26:32.039Z,10.43
2019-01-13T20:29:01.730Z,10.73
2019-01-13T20:31:31.643Z,7.83
2019-01-13T20:34:01.557Z,13.50
2019-01-13T20:36:34.345Z,16.70
2019-01-13T20:39:07.391Z,10.13
2019-01-13T20:41:37.425Z,15.17
2019-01-13T20:44:07.209Z,14.03
2019-01-13T20:46:37.115Z,14.47
2019-01-13T20:49:07.053Z,15.93
2019-01-13T20:51:36.959Z,12.87
2019-01-13T20:54:07.965Z,13.30
2019-01-13T20:56:37.783Z,13.47
2019-01-13T20:59:07.510Z,15.53
2019-01-13T21:01:37.367Z,15.40
2019-01-13T21:04:07.482Z,15.17
2019-01-13T21:06:37.505Z,15.17
2019-01-13T21:09:09.908Z,13.73
2019-01-13T21:11:40.013Z,17.73
2019-01-13T21:14:10.292Z,11.67
2019-01-13T21:16:40.262Z,13.67
2019-01-13T21:19:10.087Z,9.73
2019-01-13T21:21:39.782Z,12.63
2019-01-13T21:24:10.957Z,10.97
2019-01-13T21:26:41.173Z,14.83
2019-01-13T21:29:11.196Z,8.23
2019-01-13T21:31:41.139Z,8.03
2019-01-13T21:34:10.949Z,11.40
2019-01-13T21:36:42.473Z,11.73
2019-01-13T21:39:12.178Z,6.27
2019-01-13T21:41:41.943Z,11.73
2019-01-13T21:44:11.679Z,12.50
2019-01-13T21:46:41.632Z,12.73
2019-01-13T21:49:11.804Z,12.70
2019-01-13T21:51:41.809Z,11.57
2019-01-13T21:54:11.403Z,7.77
2019-01-13T21:56:41.067Z,13.57
2019-01-13T21:59:10.673Z,8.93
2019-01-13T22:01:40.549Z,14.73
2019-01-13T22:04:10.380Z,12.50
2019-01-13T22:06:40.304Z,16.57
2019-01-13T22:09:12.141Z,14.37
2019-01-13T22:11:42.251Z,11.70
2019-01-13T22:14:12.034Z,14.10
2019-01-13T22:16:42.166Z,9.87
2019-01-13T22:19:11.908Z,13.37
2019-01-13T22:21:41.824Z,17.87
2019-01-13T22:24:11.701Z,12.90
2019-01-13T22:26:41.842Z,14.57
2019-01-13T22:29:11.648Z,10.33
2019-01-13T22:31:41.380Z,12.50
2019-01-13T22:34:11.069Z,16.07
2019-01-13T22:36:40.738Z,14.87
2019-01-13T22:39:10.823Z,8.23
2019-01-13T22:41:40.661Z,11.57
2019-01-13T22:44:10.468Z,7.93
2019-01-13T22:46:40.502Z,9.67
2019-01-13T22:49:10.507Z,10.50
2019-01-13T22:51:40.141Z,11.50
2019-01-13T22:54:09.812Z,11.37
2019-01-13T22:56:39.619Z,11.87
2019-01-13T22:59:09.722Z,7.90
2019-01-13T23:01:40.004Z,14.73
2019-01-13T23:04:09.947Z,14.80
2019-01-13T23:06:39.800Z,11.00
2019-01-13T23:09:09.880Z,12.93
2019-01-13T23:11:39.795Z,14.97
2019-01-13T23:14:13.923Z,17.67
2019-01-13T23:16:43.718Z,12.20
2019-01-13T23:19:13.767Z,16.57
2019-01-13T23:21:43.881Z,8.13
2019-01-13T23:24:13.517Z,13.73
2019-01-13T23:26:43.397Z,8.63
2019-01-13T23:29:12.912Z,12.43
2019-01-13T23:31:42.811Z,9.80
2019-01-13T23:34:13.050Z,12.10
2019-01-13T23:36:42.842Z,9.67
2019-01-13T23:39:12.652Z,11.30
2019-01-13T23:41:42.437Z,10.10
2019-01-13T23:44:12.218Z,15.40
2019-01-13T23:46:41.942Z,8.53
2019-01-13T23:49:12.102Z,16.03
2019-01-13T23:51:41.666Z,12.00
2019-01-13T23:54:11.637Z,10.37
2019-01-13T23:56:41.333Z,8.73
2019-01-13T23:59:11.384Z,14.50
